Time;durP1;ratioP1;P1;durP2;ratioP2;P2;SDS_P1;SDS_P2;PMS_P1;PMS_P2;Temp;Humidity;BMP_temperature;BMP_pressure;BME280_temperature;BME280_humidity;BME280_pressure;Samples;Min_cycle;Max_cycle;Signal;HPM_P1;HPM_P2
2023/06/22 00:00:52;;;;;;;10.18;9.27;;;19.20;99.90;;;;;;4995744;28;20277;-81
2023/06/22 00:03:19;;;;;;;10.82;9.82;;;19.20;99.90;;;;;;4995860;28;20180;-81
2023/06/22 00:05:48;;;;;;;11.02;9.88;;;19.20;99.90;;;;;;4996161;28;20204;-81
2023/06/22 00:08:16;;;;;;;10.63;9.43;;;19.10;99.90;;;;;;4995506;28;20188;-82
2023/06/22 00:10:42;;;;;;;9.50;8.70;;;19.10;99.90;;;;;;4995322;28;20185;-82
2023/06/22 00:13:09;;;;;;;9.70;8.57;;;19.10;99.90;;;;;;4994706;28;20184;-82
2023/06/22 00:15:36;;;;;;;9.85;8.95;;;19.10;99.90;;;;;;4994355;28;20230;-82
2023/06/22 00:18:02;;;;;;;10.05;9.10;;;19.10;99.90;;;;;;4994295;28;20172;-83
2023/06/22 00:20:28;;;;;;;9.88;8.98;;;19.10;99.90;;;;;;4994879;28;20180;-83
2023/06/22 00:22:54;;;;;;;10.50;9.50;;;18.90;99.90;;;;;;4993858;28;20179;-82
2023/06/22 00:25:20;;;;;;;9.63;8.63;;;18.80;99.90;;;;;;4995043;28;20256;-81
2023/06/22 00:27:45;;;;;;;9.48;8.68;;;18.80;99.90;;;;;;4995172;28;20196;-81
2023/06/22 00:30:11;;;;;;;12.73;8.93;;;18.80;99.90;;;;;;4995084;28;20180;-81
2023/06/22 00:32:37;;;;;;;10.05;8.55;;;18.70;99.90;;;;;;4996067;28;20244;-82
2023/06/22 00:35:03;;;;;;;11.82;9.43;;;18.60;99.90;;;;;;4995802;28;20187;-81
2023/06/22 00:37:29;;;;;;;9.32;8.40;;;18.60;99.90;;;;;;4994970;28;20216;-82
2023/06/22 00:39:55;;;;;;;9.07;8.23;;;18.60;99.90;;;;;;4995332;28;20184;-81
2023/06/22 00:42:21;;;;;;;10.38;9.23;;;18.70;99.90;;;;;;4995333;28;20176;-81
2023/06/22 00:44:47;;;;;;;10.10;9.13;;;18.60;99.90;;;;;;4994427;28;20177;-82
2023/06/22 00:47:17;;;;;;;9.30;8.50;;;18.60;99.90;;;;;;4993732;28;20664;-82
2023/06/22 00:49:44;;;;;;;10.07;8.98;;;18.60;99.90;;;;;;4994402;28;20187;-82
2023/06/22 00:52:14;;;;;;;10.13;9.10;;;18.60;99.90;;;;;;4995009;28;20243;-82
2023/06/22 00:54:45;;;;;;;10.10;8.75;;;18.60;99.90;;;;;;4993727;28;20183;-82
2023/06/22 00:57:18;;;;;;;9.88;8.88;;;18.40;99.90;;;;;;4994057;28;20212;-82
2023/06/22 00:59:44;;;;;;;10.38;8.23;;;18.50;99.90;;;;;;4994161;28;20176;-82
2023/06/22 02:36:51;;;;;;;10.23;9.32;;;18.90;99.90;;;;;;5880190;23;20221;-82
2023/06/22 02:39:22;;;;;;;10.82;9.70;;;18.90;99.90;;;;;;4945518;29;20257;-83
2023/06/22 02:41:49;;;;;;;17.08;10.90;;;19.00;99.90;;;;;;4945600;29;20184;-83
2023/06/22 02:44:14;;;;;;;13.90;9.85;;;18.80;99.90;;;;;;4945005;29;20213;-83
2023/06/22 02:46:40;;;;;;;12.98;9.48;;;18.90;99.90;;;;;;4945502;29;20273;-83
2023/06/22 02:49:06;;;;;;;11.50;9.70;;;18.80;99.90;;;;;;4961879;29;20206;-83
2023/06/22 02:51:34;;;;;;;11.25;10.07;;;18.80;99.90;;;;;;4945612;29;20241;-83
2023/06/22 02:54:00;;;;;;;13.18;10.57;;;18.80;99.90;;;;;;4944213;29;20209;-83
2023/06/22 02:56:26;;;;;;;10.82;9.88;;;18.90;99.90;;;;;;4943753;29;20726;-83
2023/06/22 02:58:52;;;;;;;10.52;9.48;;;18.90;99.90;;;;;;4944463;29;20181;-83
2023/06/22 03:01:23;;;;;;;11.35;10.25;;;19.00;99.90;;;;;;4943957;29;20188;-83
2023/06/22 03:03:48;;;;;;;12.63;10.35;;;18.80;99.90;;;;;;4944142;29;20170;-83
2023/06/22 03:06:14;;;;;;;12.18;11.02;;;18.60;99.90;;;;;;4945415;29;20214;-83
2023/06/22 03:08:41;;;;;;;11.90;10.73;;;18.20;99.90;;;;;;4944038;29;20182;-83
2023/06/22 03:11:07;;;;;;;12.07;10.13;;;18.20;99.90;;;;;;4944501;29;20185;-83
2023/06/22 03:13:33;;;;;;;11.63;10.60;;;18.30;99.90;;;;;;4961211;29;20177;-83
2023/06/22 03:15:58;;;;;;;11.30;10.30;;;18.50;99.90;;;;;;4943527;29;20245;-83
2023/06/22 03:18:24;;;;;;;13.57;9.85;;;18.60;99.90;;;;;;4943742;29;20201;-83
2023/06/22 03:20:49;;;;;;;11.15;10.13;;;18.60;99.90;;;;;;4944252;29;20173;-83
2023/06/22 03:23:15;;;;;;;10.20;9.30;;;18.60;99.90;;;;;;4944897;29;20177;-83
2023/06/22 03:25:44;;;;;;;11.55;10.43;;;18.60;99.90;;;;;;4961370;29;20267;-83
2023/06/22 03:28:10;;;;;;;10.85;9.95;;;18.60;99.90;;;;;;4943896;29;20191;-83
2023/06/22 03:30:35;;;;;;;10.18;9.18;;;18.60;99.90;;;;;;4943498;29;20566;-83
2023/06/22 03:33:01;;;;;;;11.18;10.18;;;18.70;99.90;;;;;;4943590;29;20196;-83
2023/06/22 03:35:26;;;;;;;10.95;9.80;;;18.70;99.90;;;;;;4943815;29;20178;-82
2023/06/22 03:37:52;;;;;;;10.95;9.88;;;18.80;99.90;;;;;;4943220;29;20194;-82
2023/06/22 03:40:18;;;;;;;11.15;9.98;;;18.80;99.90;;;;;;4943245;29;20184;-82
2023/06/22 03:42:43;;;;;;;12.02;9.52;;;18.80;99.90;;;;;;4943841;29;20177;-82
2023/06/22 03:45:09;;;;;;;13.30;10.07;;;18.90;99.90;;;;;;4943508;29;20177;-82
2023/06/22 03:47:35;;;;;;;10.45;9.38;;;19.00;99.90;;;;;;4942852;29;20200;-82
2023/06/22 03:50:03;;;;;;;11.70;9.77;;;19.00;99.90;;;;;;4960143;28;20241;-83
2023/06/22 03:52:29;;;;;;;10.07;9.18;;;19.10;99.90;;;;;;4942852;29;20209;-83
2023/06/22 03:54:55;;;;;;;10.18;9.25;;;19.20;99.90;;;;;;4943373;29;20178;-83
2023/06/22 03:57:20;;;;;;;10.60;9.57;;;19.30;99.90;;;;;;4942909;29;20356;-83
2023/06/22 03:59:46;;;;;;;10.63;9.40;;;19.40;99.90;;;;;;4943107;29;20177;-83
2023/06/22 04:02:12;;;;;;;12.48;8.75;;;19.50;99.90;;;;;;4943399;29;20202;-83
2023/06/22 04:04:39;;;;;;;10.35;9.43;;;19.60;99.90;;;;;;4943241;29;20229;-83
2023/06/22 04:07:04;;;;;;;10.63;9.52;;;19.60;99.90;;;;;;4960349;29;20224;-83
2023/06/22 04:09:30;;;;;;;10.65;9.65;;;19.60;99.90;;;;;;4943314;29;20188;-83
2023/06/22 04:11:56;;;;;;;11.85;9.45;;;19.60;99.90;;;;;;4942846;29;20651;-83
2023/06/22 04:14:21;;;;;;;9.98;8.93;;;19.60;99.90;;;;;;4942941;29;20177;-83
2023/06/22 04:16:47;;;;;;;11.80;9.55;;;19.60;99.90;;;;;;4960175;29;20217;-83
2023/06/22 04:19:16;;;;;;;10.00;9.00;;;19.70;99.90;;;;;;4959971;29;20180;-83
2023/06/22 04:21:43;;;;;;;11.02;9.90;;;19.70;99.90;;;;;;4943129;29;20208;-83
2023/06/22 04:24:08;;;;;;;10.25;9.25;;;19.70;99.90;;;;;;4943393;29;20201;-83
2023/06/22 04:26:36;;;;;;;12.10;9.15;;;19.80;99.90;;;;;;4942552;29;20209;-83
2023/06/22 04:29:05;;;;;;;11.15;9.82;;;19.90;99.90;;;;;;4942413;29;20213;-83
2023/06/22 04:31:36;;;;;;;10.57;9.57;;;20.00;99.90;;;;;;4959889;29;20180;-83
2023/06/22 04:34:06;;;;;;;11.05;9.93;;;20.00;99.90;;;;;;4943454;29;20631;-82
2023/06/22 04:36:37;;;;;;;11.52;9.75;;;20.10;99.90;;;;;;4942502;29;20209;-82
2023/06/22 04:39:09;;;;;;;13.35;9.43;;;20.10;99.90;;;;;;4942240;29;20187;-82
2023/06/22 04:41:41;;;;;;;11.07;9.23;;;20.20;99.90;;;;;;4942834;29;20671;-82
2023/06/22 04:44:12;;;;;;;11.30;10.20;;;20.20;99.90;;;;;;4942258;29;20170;-83
2023/06/22 04:46:39;;;;;;;12.40;10.32;;;20.20;99.90;;;;;;4943256;29;20264;-83
2023/06/22 04:49:11;;;;;;;10.68;9.65;;;20.40;99.90;;;;;;4943942;29;20181;-83
2023/06/22 04:51:41;;;;;;;11.80;10.18;;;20.50;99.90;;;;;;4943999;29;20201;-83
2023/06/22 04:54:08;;;;;;;10.95;9.93;;;20.60;99.90;;;;;;4942330;29;20169;-82
2023/06/22 04:56:34;;;;;;;11.13;9.90;;;20.90;99.90;;;;;;4942000;29;20306;-83
2023/06/22 04:59:00;;;;;;;14.70;10.07;;;21.10;99.90;;;;;;4942825;29;20178;-83
2023/06/22 05:01:26;;;;;;;11.30;9.98;;;21.20;99.90;;;;;;4942844;28;20625;-83
2023/06/22 05:04:00;;;;;;;17.77;8.57;;;21.40;99.90;;;;;;4947778;29;20177;-83
2023/06/22 05:06:26;;;;;;;18.23;9.90;;;21.50;99.90;;;;;;4963880;29;20618;-82
2023/06/22 05:08:58;;;;;;;18.90;9.70;;;21.80;99.90;;;;;;4944325;29;20636;-82
2023/06/22 05:11:28;;;;;;;15.60;9.48;;;22.00;99.90;;;;;;4943964;29;20182;-81
2023/06/22 05:13:54;;;;;;;9.43;8.13;;;22.10;99.90;;;;;;4943928;29;20181;-81
2023/06/22 05:16:24;;;;;;;9.75;8.95;;;22.20;99.90;;;;;;4943211;29;20217;-81
2023/06/22 05:18:56;;;;;;;10.65;9.65;;;22.20;99.90;;;;;;4944088;29;20185;-81
2023/06/22 05:21:23;;;;;;;12.00;10.02;;;22.00;99.90;;;;;;4943673;29;20268;-85
2023/06/22 05:23:49;;;;;;;11.98;9.90;;;21.80;99.90;;;;;;4944392;29;20285;-82
2023/06/22 05:26:14;;;;;;;11.43;10.32;;;21.80;99.90;;;;;;4944245;29;20248;-83
2023/06/22 05:28:40;;;;;;;17.15;11.13;;;21.60;99.90;;;;;;4945361;29;20185;-83
2023/06/22 05:31:06;;;;;;;19.00;10.73;;;21.90;99.90;;;;;;4944937;29;20671;-84
2023/06/22 05:33:31;;;;;;;11.32;10.15;;;22.00;99.90;;;;;;4961718;29;20229;-84
2023/06/22 05:35:57;;;;;;;10.38;9.32;;;22.40;99.90;;;;;;4944537;29;20213;-83
2023/06/22 05:38:22;;;;;;;10.52;9.50;;;22.50;99.90;;;;;;4961336;29;20186;-84
2023/06/22 05:40:48;;;;;;;10.23;9.02;;;22.80;99.90;;;;;;4942881;29;20186;-84
2023/06/22 05:43:13;;;;;;;10.10;9.13;;;23.00;99.90;;;;;;4942636;29;20209;-84
2023/06/22 05:45:39;;;;;;;11.50;9.13;;;23.10;99.90;;;;;;4959648;29;20201;-83
2023/06/22 05:48:05;;;;;;;9.20;8.40;;;23.10;99.90;;;;;;4943136;29;20185;-86
2023/06/22 05:50:30;;;;;;;14.82;9.32;;;23.20;99.90;;;;;;4942342;29;20182;-83
2023/06/22 05:52:56;;;;;;;10.38;9.15;;;23.40;99.90;;;;;;4942661;29;20177;-84
2023/06/22 05:55:22;;;;;;;9.25;8.32;;;23.60;99.90;;;;;;4944134;29;20182;-84
2023/06/22 05:57:47;;;;;;;10.52;8.77;;;23.90;99.90;;;;;;4942820;29;20189;-83
2023/06/22 06:00:14;;;;;;;10.77;9.05;;;24.00;99.90;;;;;;4942766;29;20186;-83
2023/06/22 06:02:43;;;;;;;10.80;9.20;;;23.90;99.90;;;;;;4960190;29;20309;-83
2023/06/22 06:05:16;;;;;;;9.75;8.77;;;24.00;99.90;;;;;;4943093;29;20229;-83
2023/06/22 06:07:42;;;;;;;11.00;9.45;;;24.10;99.90;;;;;;4960377;29;20202;-83
2023/06/22 06:10:08;;;;;;;10.32;9.25;;;24.10;99.90;;;;;;4943051;29;20193;-83
2023/06/22 06:12:34;;;;;;;9.70;8.80;;;24.10;99.90;;;;;;4942980;29;20185;-83
2023/06/22 06:15:00;;;;;;;10.23;8.82;;;24.50;99.90;;;;;;4942469;29;20264;-83
2023/06/22 06:17:26;;;;;;;9.65;8.85;;;24.80;99.90;;;;;;4943504;29;20233;-83
2023/06/22 06:19:52;;;;;;;9.80;8.32;;;25.10;99.90;;;;;;4943946;29;20181;-83
2023/06/22 06:22:18;;;;;;;8.95;8.15;;;25.90;99.90;;;;;;4943882;29;20671;-83
2023/06/22 06:24:45;;;;;;;9.45;8.68;;;26.40;99.90;;;;;;4944261;29;20216;-83
2023/06/22 06:27:11;;;;;;;12.73;8.05;;;26.80;99.90;;;;;;4944352;29;20201;-83
2023/06/22 06:29:36;;;;;;;8.95;8.25;;;27.10;99.90;;;;;;4943368;29;20188;-83
2023/06/22 06:32:02;;;;;;;8.77;7.88;;;27.30;99.90;;;;;;4944839;29;20189;-83
2023/06/22 06:34:27;;;;;;;8.63;7.82;;;28.00;99.90;;;;;;4944905;29;20181;-83
2023/06/22 06:36:53;;;;;;;8.82;8.02;;;28.30;98.40;;;;;;4960966;29;20212;-83
2023/06/22 06:39:20;;;;;;;10.82;7.68;;;28.20;97.70;;;;;;4944540;29;20169;-83
2023/06/22 06:41:45;;;;;;;9.02;8.07;;;28.60;96.80;;;;;;4943726;29;20184;-83
2023/06/22 06:44:11;;;;;;;8.38;7.57;;;28.80;95.80;;;;;;4944031;29;20636;-83
2023/06/22 06:46:37;;;;;;;8.73;7.75;;;29.10;95.10;;;;;;4943463;29;20258;-83
2023/06/22 06:49:03;;;;;;;8.85;8.15;;;29.20;94.30;;;;;;4943820;29;20178;-83
2023/06/22 06:51:29;;;;;;;8.38;7.75;;;29.10;93.10;;;;;;4943242;29;20185;-83
2023/06/22 06:53:54;;;;;;;8.48;7.72;;;28.80;93.20;;;;;;4944070;29;20276;-84
2023/06/22 06:56:20;;;;;;;23.58;9.57;;;28.50;93.90;;;;;;4943592;29;20213;-84
2023/06/22 06:58:46;;;;;;;9.88;7.07;;;28.50;94.00;;;;;;4943827;29;20235;-83
2023/06/22 07:01:12;;;;;;;8.05;7.20;;;28.00;91.70;;;;;;4943278;29;20181;-83
2023/06/22 07:03:38;;;;;;;8.05;7.45;;;27.00;92.70;;;;;;4943621;29;20260;-83
2023/06/22 07:06:04;;;;;;;8.13;7.38;;;26.80;95.30;;;;;;4944133;29;20252;-83
2023/06/22 07:08:29;;;;;;;7.82;7.20;;;26.40;94.40;;;;;;4943618;29;20182;-83
2023/06/22 07:10:55;;;;;;;8.75;7.97;;;26.00;94.40;;;;;;4943375;29;20567;-83
2023/06/22 07:13:21;;;;;;;8.30;7.47;;;26.00;95.30;;;;;;4943090;29;20182;-83
2023/06/22 07:15:46;;;;;;;8.13;7.32;;;26.10;95.70;;;;;;4942863;29;20216;-83
2023/06/22 07:18:12;;;;;;;11.02;7.82;;;26.20;94.80;;;;;;4942581;29;20177;-83
2023/06/22 07:20:39;;;;;;;10.02;7.32;;;26.10;94.40;;;;;;4959984;29;20192;-83
2023/06/22 07:23:05;;;;;;;8.02;7.20;;;26.00;94.50;;;;;;4942711;29;20237;-83
2023/06/22 07:25:30;;;;;;;9.02;7.43;;;26.00;95.50;;;;;;4941654;29;20177;-82
2023/06/22 07:28:04;;;;;;;8.15;7.45;;;25.90;95.30;;;;;;4942463;29;20584;-83
2023/06/22 07:30:30;;;;;;;8.15;7.35;;;25.80;95.00;;;;;;4942502;29;20174;-83
2023/06/22 07:32:57;;;;;;;8.25;7.50;;;25.80;94.60;;;;;;4941989;29;20248;-83
2023/06/22 07:35:23;;;;;;;8.23;7.50;;;25.80;94.60;;;;;;4942545;29;20190;-82
2023/06/22 07:37:49;;;;;;;10.00;7.45;;;26.00;95.00;;;;;;4942798;29;20193;-83
2023/06/22 07:40:15;;;;;;;8.45;7.10;;;26.30;95.20;;;;;;4942714;29;20228;-83
2023/06/22 07:42:40;;;;;;;11.40;7.57;;;26.50;95.70;;;;;;4942738;29;20185;-83
2023/06/22 07:45:10;;;;;;;9.10;7.53;;;26.40;93.40;;;;;;4943349;29;20188;-83
2023/06/22 07:47:36;;;;;;;7.97;7.18;;;26.30;94.60;;;;;;4942443;29;20205;-83
2023/06/22 07:50:02;;;;;;;7.85;7.15;;;26.30;95.10;;;;;;4942908;29;20267;-83
2023/06/22 07:52:28;;;;;;;8.15;7.35;;;26.40;93.80;;;;;;4942007;29;20189;-83
2023/06/22 07:54:54;;;;;;;9.88;7.47;;;26.40;93.50;;;;;;4942087;29;20184;-83
2023/06/22 07:57:20;;;;;;;9.48;7.22;;;26.50;93.50;;;;;;4943016;29;20217;-83
2023/06/22 07:59:45;;;;;;;8.00;7.30;;;26.70;93.60;;;;;;4942068;29;20628;-83
2023/06/22 08:02:11;;;;;;;7.80;7.10;;;26.70;92.40;;;;;;4942329;29;20261;-83
2023/06/22 08:04:37;;;;;;;7.72;7.03;;;26.80;93.20;;;;;;4941865;29;20181;-83
2023/06/22 08:07:04;;;;;;;11.70;7.30;;;27.00;92.80;;;;;;4942314;29;20210;-83
2023/06/22 08:09:30;;;;;;;8.00;7.20;;;27.10;92.50;;;;;;4942558;29;20182;-83
2023/06/22 08:11:56;;;;;;;9.13;6.65;;;27.20;92.90;;;;;;4941961;29;20185;-83
2023/06/22 08:14:25;;;;;;;8.07;6.82;;;27.10;91.10;;;;;;4942332;29;20178;-83
2023/06/22 08:16:51;;;;;;;8.48;7.18;;;27.10;92.10;;;;;;4942448;29;20213;-83
2023/06/22 08:19:17;;;;;;;7.85;6.80;;;27.10;91.60;;;;;;4941741;29;20185;-83
2023/06/22 08:21:43;;;;;;;9.20;6.90;;;27.30;91.10;;;;;;4941973;29;20177;-83
2023/06/22 08:24:09;;;;;;;8.32;6.80;;;26.90;90.30;;;;;;4942799;29;20182;-83
2023/06/22 08:26:36;;;;;;;7.50;6.80;;;27.00;91.80;;;;;;4942481;29;20282;-83
2023/06/22 08:29:05;;;;;;;7.82;6.70;;;27.30;91.60;;;;;;4942332;29;20181;-83
2023/06/22 08:31:33;;;;;;;7.25;6.65;;;27.50;91.10;;;;;;4959945;29;20189;-84
2023/06/22 08:33:59;;;;;;;7.50;6.90;;;27.50;90.00;;;;;;4958530;29;20181;-83
2023/06/22 08:36:24;;;;;;;7.95;7.15;;;27.50;90.00;;;;;;4940799;28;20217;-83
2023/06/22 08:38:52;;;;;;;7.80;6.95;;;27.50;90.50;;;;;;4941017;29;20189;-83
2023/06/22 08:41:18;;;;;;;7.70;7.03;;;27.50;90.70;;;;;;4941075;29;20197;-83
2023/06/22 08:43:47;;;;;;;7.70;7.10;;;27.70;90.80;;;;;;4941530;29;20185;-83
2023/06/22 08:46:12;;;;;;;8.50;6.90;;;27.70;89.10;;;;;;4941803;29;20293;-83
2023/06/22 08:48:39;;;;;;;7.90;7.18;;;27.80;90.30;;;;;;4940641;29;20667;-83
2023/06/22 08:51:04;;;;;;;7.72;7.03;;;27.90;88.90;;;;;;4941931;29;20238;-83
2023/06/22 08:53:30;;;;;;;9.52;7.18;;;27.90;90.60;;;;;;4941167;29;20644;-83
2023/06/22 08:55:55;;;;;;;9.68;6.90;;;27.90;89.40;;;;;;4957957;29;20208;-83
2023/06/22 08:58:21;;;;;;;7.95;7.18;;;28.10;90.20;;;;;;4942265;29;20204;-83
2023/06/22 09:00:47;;;;;;;9.85;7.65;;;28.30;90.60;;;;;;4941042;29;20180;-83
2023/06/22 09:03:13;;;;;;;11.25;7.80;;;28.40;89.90;;;;;;4941142;29;20181;-83
2023/06/22 09:05:39;;;;;;;15.48;8.35;;;28.40;89.00;;;;;;4941204;29;20184;-83
2023/06/22 09:08:04;;;;;;;9.93;7.82;;;28.40;90.40;;;;;;4941247;29;20177;-83
2023/06/22 09:10:30;;;;;;;8.50;7.47;;;28.40;86.30;;;;;;4940126;29;20201;-83
2023/06/22 09:12:57;;;;;;;7.95;7.13;;;28.40;88.60;;;;;;4958002;29;20352;-83
2023/06/22 09:15:22;;;;;;;8.02;7.32;;;28.20;87.00;;;;;;4940818;29;20184;-82
2023/06/22 09:17:48;;;;;;;8.02;7.40;;;27.90;86.80;;;;;;4940923;29;20212;-83
2023/06/22 09:20:14;;;;;;;8.98;8.10;;;28.10;88.10;;;;;;4940893;29;20177;-83
2023/06/22 09:22:40;;;;;;;9.82;8.10;;;28.30;89.50;;;;;;4941226;29;20265;-83
2023/06/22 09:25:06;;;;;;;8.30;7.50;;;28.40;88.80;;;;;;4940905;29;20213;-83
2023/06/22 09:27:31;;;;;;;8.65;7.05;;;28.30;85.70;;;;;;4940695;29;20197;-83
2023/06/22 09:29:58;;;;;;;7.97;7.28;;;28.30;86.40;;;;;;4940608;29;20187;-83
2023/06/22 09:32:25;;;;;;;8.02;6.97;;;28.40;87.50;;;;;;4941011;29;20200;-83
2023/06/22 09:34:52;;;;;;;10.73;7.40;;;28.60;88.50;;;;;;4941342;29;20212;-83
2023/06/22 09:37:18;;;;;;;8.18;7.38;;;28.70;85.80;;;;;;4940580;29;20240;-84
2023/06/22 09:39:43;;;;;;;8.35;7.43;;;28.70;84.00;;;;;;4942012;29;20177;-84
2023/06/22 09:42:09;;;;;;;8.63;7.80;;;28.70;84.10;;;;;;4941041;29;20184;-84
2023/06/22 09:44:35;;;;;;;8.95;7.50;;;28.70;83.80;;;;;;4941062;29;20199;-84
2023/06/22 09:47:00;;;;;;;8.10;7.40;;;28.70;85.60;;;;;;4939517;29;20684;-83
2023/06/22 09:49:26;;;;;;;8.27;7.57;;;28.70;84.00;;;;;;4942083;29;20284;-83
2023/06/22 09:51:52;;;;;;;9.02;7.50;;;28.70;84.50;;;;;;4944029;29;20177;-83
2023/06/22 09:54:18;;;;;;;7.90;7.18;;;28.70;84.00;;;;;;4961320;29;20659;-83
2023/06/22 09:56:43;;;;;;;8.20;7.45;;;28.50;82.60;;;;;;4943378;29;20213;-83
2023/06/22 09:59:09;;;;;;;12.65;7.82;;;28.60;82.60;;;;;;4960733;29;20256;-83
2023/06/22 10:01:34;;;;;;;9.77;8.00;;;28.40;83.80;;;;;;4961177;29;20173;-83
2023/06/22 10:04:02;;;;;;;8.25;7.40;;;28.50;84.10;;;;;;4943351;29;20181;-83
2023/06/22 10:06:27;;;;;;;8.07;7.28;;;28.70;84.30;;;;;;4943071;29;20205;-83
2023/06/22 10:08:53;;;;;;;9.18;7.20;;;28.70;82.10;;;;;;4960272;29;20593;-83
2023/06/22 10:11:19;;;;;;;7.75;6.93;;;28.70;82.40;;;;;;4943677;29;20192;-83
2023/06/22 10:13:44;;;;;;;9.00;7.22;;;28.50;81.80;;;;;;4944028;29;20185;-83
2023/06/22 10:16:10;;;;;;;10.23;7.07;;;28.40;81.90;;;;;;4943544;29;20630;-83
